Sarocha Naree — 9V5464 — position and weather

sailwx.info

Track history (hours):
 
Tides and Currents Weather Stations Pressure Air Temp Water Temp Dewpoint Dewpoint Depression Visibility Wind Speed Wind Dir Waves Ship Positions

Sarocha Naree

Last reported at 2018-Jun-19 15:55 UTC. Time now 2018-Jun-19 15:59 UTC.
Position N 53°38' W 000°12'.

Length 199 m; draft 11.7 m.

Type: Cargo ship. MMSI: 563020100.

Date/timePositionNaut miles runAvg speedWind from/ knotsBaromVisibWave heightAir tempDewpointWater temp
2018-Jun-19 15:55N 53°38' W 000°12'0 0.0
2018-Jun-19 15:28N 53°38' W 000°12'0 0.0
2018-Jun-19 14:55N 53°38' W 000°12'0 0.0
2018-Jun-19 14:22N 53°38' W 000°12'0 0.0
2018-Jun-19 13:49N 53°38' W 000°12'0 0.0
2018-Jun-19 13:25N 53°38' W 000°12'0 0.0
2018-Jun-19 12:55N 53°38' W 000°12'0 0.0
2018-Jun-19 12:28N 53°38' W 000°12'0 0.0
2018-Jun-19 11:55N 53°38' W 000°12'0 0.0
2018-Jun-19 11:28N 53°38' W 000°12'0 0.0
2018-Jun-19 10:58N 53°38' W 000°12'0 0.0
2018-Jun-19 10:28N 53°38' W 000°12'0 0.0
2018-Jun-19 09:55N 53°38' W 000°12'0 0.0
2018-Jun-19 09:19N 53°38' W 000°12'0 0.0
2018-Jun-19 08:43N 53°38' W 000°12'0 0.0
2018-Jun-19 08:28N 53°38' W 000°12'0 0.0
2018-Jun-19 07:46N 53°38' W 000°12'0 0.0
2018-Jun-19 07:25N 53°38' W 000°12'0 0.0
2018-Jun-19 06:49N 53°38' W 000°12'0 0.0
2018-Jun-19 06:25N 53°38' W 000°12'0 0.0
2018-Jun-19 05:58N 53°38' W 000°12'0 0.0
2018-Jun-19 05:28N 53°38' W 000°12'0 0.0
2018-Jun-19 04:58N 53°38' W 000°12'0 0.0
2018-Jun-19 04:25N 53°38' W 000°12'0 0.0
2018-Jun-19 03:58N 53°38' W 000°12'0 0.0
2018-Jun-19 03:25N 53°38' W 000°12'0 0.0
2018-Jun-19 02:58N 53°38' W 000°12'0 0.0
2018-Jun-19 02:28N 53°38' W 000°12'0 0.0
2018-Jun-19 01:58N 53°38' W 000°12'0 0.0
2018-Jun-19 01:25N 53°38' W 000°12'0 0.0
2018-Jun-19 00:46N 53°38' W 000°12'0 0.0
2018-Jun-19 00:10N 53°38' W 000°12'0 0.0
2018-Jun-18 23:55N 53°38' W 000°12'0 0.0
2018-Jun-18 23:19N 53°38' W 000°12'0 0.0
2018-Jun-18 22:43N 53°38' W 000°12'0 0.0
2018-Jun-18 22:19N 53°38' W 000°12'0 0.1
2018-Jun-18 21:58N 53°38' W 000°12'0 0.1
2018-Jun-18 21:16N 53°38' W 000°12'0 0.0
2018-Jun-18 20:58N 53°38' W 000°12'0 0.0
2018-Jun-18 20:28N 53°38' W 000°12'0 0.0
2018-Jun-18 19:58N 53°38' W 000°12'0 0.0
2018-Jun-18 19:28N 53°38' W 000°12'0 0.0
2018-Jun-18 18:58N 53°38' W 000°12'0 0.0
2018-Jun-18 18:22N 53°38' W 000°12'0 0.0
2018-Jun-18 17:10N 53°38' W 000°12'0 0.0
2018-Jun-18 16:58N 53°38' W 000°12'0 0.0
2018-Jun-18 16:19N 53°38' W 000°12'0 0.0
2018-Jun-18 15:55N 53°38' W 000°12'0 0.0
2018-Jun-18 15:19N 53°38' W 000°12'0 0.0
2018-Jun-18 13:52N 53°38' W 000°12'0 0.0
2018-Jun-18 13:28N 53°38' W 000°12'0 0.0
2018-Jun-18 12:58N 53°38' W 000°12'0 0.0
2018-Jun-18 12:16N 53°38' W 000°12'0 0.0
2018-Jun-18 11:58N 53°38' W 000°12'0 0.0
2018-Jun-18 11:25N 53°38' W 000°12'0 0.0
2018-Jun-18 10:49N 53°38' W 000°12'0 0.0
2018-Jun-18 10:25N 53°38' W 000°12'0 0.0
2018-Jun-18 09:58N 53°38' W 000°12'0 0.0
2018-Jun-18 09:28N 53°38' W 000°12'0 0.2
2018-Jun-18 09:00N 53°38' W 000°12'2 3.2
2018-Jun-18 08:30N 53°38' W 000°09'3 6.7
2018-Jun-18 08:00N 53°37' W 000°04'4 7.5
2018-Jun-18 07:30N 53°36' E 000°02'510.3
2018-Jun-18 07:00N 53°33' E 000°10'6 8.5
2018-Jun-18 06:20N 53°36' E 000°18'4 7.9
2018-Jun-18 05:50N 53°39' E 000°22'1 4.1
2018-Jun-18 05:30N 53°40' E 000°22'0 0.4
2018-Jun-18 04:48N 53°40' E 000°23'4 4.7
2018-Jun-18 03:52N 53°44' E 000°25'0 0.0
2018-Jun-17 21:50N 53°44' E 000°25'0 0.0
2018-Jun-17 16:11N 53°44' E 000°24'0 0.0
2018-Jun-17 03:50N 53°44' E 000°25'0 0.2
2018-Jun-17 03:29N 53°44' E 000°25'0 0.0
2018-Jun-16 20:35N 53°44' E 000°25'0 0.1
2018-Jun-16 20:29N 53°44' E 000°25'0 0.0
2018-Jun-16 07:36N 53°44' E 000°25'0 0.0
2018-Jun-16 07:02N 53°44' E 000°25'0 0.0
2018-Jun-16 04:32N 53°44' E 000°25'0 0.0
2018-Jun-16 04:14N 53°44' E 000°25'0 0.1
2018-Jun-16 03:50N 53°44' E 000°25'0 0.0
2018-Jun-16 03:23N 53°44' E 000°25'0 0.1
2018-Jun-16 02:59N 53°44' E 000°25'0 0.3
2018-Jun-16 02:26N 53°44' E 000°25'0 0.2
2018-Jun-16 01:59N 53°44' E 000°25'0 0.0
2018-Jun-15 20:20N 53°44' E 000°25'0 0.3
2018-Jun-15 19:59N 53°44' E 000°25'0 0.1
2018-Jun-15 19:29N 53°44' E 000°25'0 0.0
2018-Jun-15 13:36N 53°44' E 000°25'1 2.8
2018-Jun-15 13:22N 53°45' E 000°24'8 7.1
2018-Jun-15 12:17N 53°52' E 000°23'411.5
2018-Jun-15 11:57N 53°56' E 000°22'511.2
2018-Jun-15 11:30N 54°01' E 000°21'611.2
2018-Jun-15 11:00N 54°07' E 000°21'611.1
2018-Jun-15 10:30N 54°12' E 000°20'611.3
2018-Jun-15 10:00N 54°18' E 000°20'611.2
2018-Jun-15 09:30N 54°24' E 000°19'611.7
2018-Jun-15 09:00N 54°29' E 000°18'611.7
2018-Jun-15 08:30N 54°35' E 000°18'611.9
2018-Jun-15 08:00N 54°41' E 000°17'612.3
2018-Jun-15 07:30N 54°47' E 000°17'712.5
2018-Jun-15 06:56N 54°54' E 000°15'23511.8
2018-Jun-14 11:05N 58°28' W 002°42'113.6
2018-Jun-14 11:00N 58°29' W 002°44'815.3
2018-Jun-14 10:30N 58°35' W 002°53'917.1
2018-Jun-14 10:00N 58°42' W 003°02'917.1
2018-Jun-14 09:30N 58°44' W 003°18'815.4
2018-Jun-14 09:00N 58°45' W 003°32'  
Track history (hours):
 
Tides and Currents Weather Stations Pressure Air Temp Water Temp Dewpoint Dewpoint Depression Visibility Wind Speed Wind Dir Waves Ship Positions

Sarocha Naree

Last reported at 2018-Jun-19 15:55 UTC. Time now 2018-Jun-19 15:59 UTC.
Position N 53°38' W 000°12'.

Length 199 m; draft 11.7 m.

Type: Cargo ship. MMSI: 563020100.

Date/timePositionNaut miles runAvg speedWind from/ knotsBaromVisibWave heightAir tempDewpointWater temp
2018-Jun-19 15:55N 53°38' W 000°12'0 0.0
2018-Jun-19 15:28N 53°38' W 000°12'0 0.0
2018-Jun-19 14:55N 53°38' W 000°12'0 0.0
2018-Jun-19 14:22N 53°38' W 000°12'0 0.0
2018-Jun-19 13:49N 53°38' W 000°12'0 0.0
2018-Jun-19 13:25N 53°38' W 000°12'0 0.0
2018-Jun-19 12:55N 53°38' W 000°12'0 0.0
2018-Jun-19 12:28N 53°38' W 000°12'0 0.0
2018-Jun-19 11:55N 53°38' W 000°12'0 0.0
2018-Jun-19 11:28N 53°38' W 000°12'0 0.0
2018-Jun-19 10:58N 53°38' W 000°12'0 0.0
2018-Jun-19 10:28N 53°38' W 000°12'0 0.0
2018-Jun-19 09:55N 53°38' W 000°12'0 0.0
2018-Jun-19 09:19N 53°38' W 000°12'0 0.0
2018-Jun-19 08:43N 53°38' W 000°12'0 0.0
2018-Jun-19 08:28N 53°38' W 000°12'0 0.0
2018-Jun-19 07:46N 53°38' W 000°12'0 0.0
2018-Jun-19 07:25N 53°38' W 000°12'0 0.0
2018-Jun-19 06:49N 53°38' W 000°12'0 0.0
2018-Jun-19 06:25N 53°38' W 000°12'0 0.0
2018-Jun-19 05:58N 53°38' W 000°12'0 0.0
2018-Jun-19 05:28N 53°38' W 000°12'0 0.0
2018-Jun-19 04:58N 53°38' W 000°12'0 0.0
2018-Jun-19 04:25N 53°38' W 000°12'0 0.0
2018-Jun-19 03:58N 53°38' W 000°12'0 0.0
2018-Jun-19 03:25N 53°38' W 000°12'0 0.0
2018-Jun-19 02:58N 53°38' W 000°12'0 0.0
2018-Jun-19 02:28N 53°38' W 000°12'0 0.0
2018-Jun-19 01:58N 53°38' W 000°12'0 0.0
2018-Jun-19 01:25N 53°38' W 000°12'0 0.0
2018-Jun-19 00:46N 53°38' W 000°12'0 0.0
2018-Jun-19 00:10N 53°38' W 000°12'0 0.0
2018-Jun-18 23:55N 53°38' W 000°12'0 0.0
2018-Jun-18 23:19N 53°38' W 000°12'0 0.0
2018-Jun-18 22:43N 53°38' W 000°12'0 0.0
2018-Jun-18 22:19N 53°38' W 000°12'0 0.1
2018-Jun-18 21:58N 53°38' W 000°12'0 0.1
2018-Jun-18 21:16N 53°38' W 000°12'0 0.0
2018-Jun-18 20:58N 53°38' W 000°12'0 0.0
2018-Jun-18 20:28N 53°38' W 000°12'0 0.0
2018-Jun-18 19:58N 53°38' W 000°12'0 0.0
2018-Jun-18 19:28N 53°38' W 000°12'0 0.0
2018-Jun-18 18:58N 53°38' W 000°12'0 0.0
2018-Jun-18 18:22N 53°38' W 000°12'0 0.0
2018-Jun-18 17:10N 53°38' W 000°12'0 0.0
2018-Jun-18 16:58N 53°38' W 000°12'0 0.0
2018-Jun-18 16:19N 53°38' W 000°12'0 0.0
2018-Jun-18 15:55N 53°38' W 000°12'0 0.0
2018-Jun-18 15:19N 53°38' W 000°12'0 0.0
2018-Jun-18 13:52N 53°38' W 000°12'0 0.0
2018-Jun-18 13:28N 53°38' W 000°12'0 0.0
2018-Jun-18 12:58N 53°38' W 000°12'0 0.0
2018-Jun-18 12:16N 53°38' W 000°12'0 0.0
2018-Jun-18 11:58N 53°38' W 000°12'0 0.0
2018-Jun-18 11:25N 53°38' W 000°12'0 0.0
2018-Jun-18 10:49N 53°38' W 000°12'0 0.0
2018-Jun-18 10:25N 53°38' W 000°12'0 0.0
2018-Jun-18 09:58N 53°38' W 000°12'0 0.0
2018-Jun-18 09:28N 53°38' W 000°12'0 0.2
2018-Jun-18 09:00N 53°38' W 000°12'2 3.2
2018-Jun-18 08:30N 53°38' W 000°09'3 6.7
2018-Jun-18 08:00N 53°37' W 000°04'4 7.5
2018-Jun-18 07:30N 53°36' E 000°02'510.3
2018-Jun-18 07:00N 53°33' E 000°10'6 8.5
2018-Jun-18 06:20N 53°36' E 000°18'4 7.9
2018-Jun-18 05:50N 53°39' E 000°22'1 4.1
2018-Jun-18 05:30N 53°40' E 000°22'0 0.4
2018-Jun-18 04:48N 53°40' E 000°23'4 4.7
2018-Jun-18 03:52N 53°44' E 000°25'0 0.0
2018-Jun-17 21:50N 53°44' E 000°25'0 0.0
2018-Jun-17 16:11N 53°44' E 000°24'0 0.0
2018-Jun-17 03:50N 53°44' E 000°25'0 0.2
2018-Jun-17 03:29N 53°44' E 000°25'0 0.0
2018-Jun-16 20:35N 53°44' E 000°25'0 0.1
2018-Jun-16 20:29N 53°44' E 000°25'0 0.0
2018-Jun-16 07:36N 53°44' E 000°25'0 0.0
2018-Jun-16 07:02N 53°44' E 000°25'0 0.0
2018-Jun-16 04:32N 53°44' E 000°25'0 0.0
2018-Jun-16 04:14N 53°44' E 000°25'0 0.1
2018-Jun-16 03:50N 53°44' E 000°25'0 0.0
2018-Jun-16 03:23N 53°44' E 000°25'0 0.1
2018-Jun-16 02:59N 53°44' E 000°25'0 0.3
2018-Jun-16 02:26N 53°44' E 000°25'0 0.2
2018-Jun-16 01:59N 53°44' E 000°25'0 0.0
2018-Jun-15 20:20N 53°44' E 000°25'0 0.3
2018-Jun-15 19:59N 53°44' E 000°25'0 0.1
2018-Jun-15 19:29N 53°44' E 000°25'0 0.0
2018-Jun-15 13:36N 53°44' E 000°25'1 2.8
2018-Jun-15 13:22N 53°45' E 000°24'8 7.1
2018-Jun-15 12:17N 53°52' E 000°23'411.5
2018-Jun-15 11:57N 53°56' E 000°22'511.2
2018-Jun-15 11:30N 54°01' E 000°21'611.2
2018-Jun-15 11:00N 54°07' E 000°21'611.1
2018-Jun-15 10:30N 54°12' E 000°20'611.3
2018-Jun-15 10:00N 54°18' E 000°20'611.2
2018-Jun-15 09:30N 54°24' E 000°19'611.7
2018-Jun-15 09:00N 54°29' E 000°18'611.7
2018-Jun-15 08:30N 54°35' E 000°18'611.9
2018-Jun-15 08:00N 54°41' E 000°17'612.3
2018-Jun-15 07:30N 54°47' E 000°17'712.5
2018-Jun-15 06:56N 54°54' E 000°15'23511.8
2018-Jun-14 11:05N 58°28' W 002°42'113.6
2018-Jun-14 11:00N 58°29' W 002°44'815.3
2018-Jun-14 10:30N 58°35' W 002°53'917.1
2018-Jun-14 10:00N 58°42' W 003°02'917.1
2018-Jun-14 09:30N 58°44' W 003°18'815.4
2018-Jun-14 09:00N 58°45' W 003°32'  

Dump ship's entire track history